sensor_id;sensor_type;location;lat;lon;timestamp;pressure;altitude;pressure_sealevel;temperature;humidity
68226;BME280;55045;49.410;11.030;2024-03-07T00:00:38;98655.56;;;2.41;100.00
68226;BME280;55045;49.410;11.030;2024-03-07T00:03:42;98655.53;;;2.44;100.00
68226;BME280;55045;49.410;11.030;2024-03-07T00:06:48;98656.44;;;2.39;100.00
68226;BME280;55045;49.410;11.030;2024-03-07T00:09:52;98655.75;;;2.15;100.00
68226;BME280;55045;49.410;11.030;2024-03-07T00:12:56;98656.47;;;2.33;100.00
68226;BME280;55045;49.410;11.030;2024-03-07T00:15:59;98653.97;;;2.22;100.00
68226;BME280;55045;49.410;11.030;2024-03-07T00:19:04;98655.69;;;2.20;100.00
68226;BME280;55045;49.410;11.030;2024-03-07T00:22:09;98650.47;;;2.34;100.00
68226;BME280;55045;49.410;11.030;2024-03-07T00:25:12;98652.34;;;2.15;100.00
68226;BME280;55045;49.410;11.030;2024-03-07T00:28:17;98652.97;;;2.46;100.00
68226;BME280;55045;49.410;11.030;2024-03-07T00:31:20;98644.50;;;2.36;100.00
68226;BME280;55045;49.410;11.030;2024-03-07T00:34:24;98647.16;;;2.25;100.00
68226;BME280;55045;49.410;11.030;2024-03-07T00:37:29;98628.38;;;2.22;100.00
68226;BME280;55045;49.410;11.030;2024-03-07T00:40:34;98625.50;;;2.65;100.00
68226;BME280;55045;49.410;11.030;2024-03-07T00:43:38;98640.59;;;2.94;100.00
68226;BME280;55045;49.410;11.030;2024-03-07T00:46:42;98634.50;;;3.05;100.00
68226;BME280;55045;49.410;11.030;2024-03-07T00:49:46;98629.47;;;2.98;100.00
68226;BME280;55045;49.410;11.030;2024-03-07T00:52:51;98630.31;;;2.98;100.00
68226;BME280;55045;49.410;11.030;2024-03-07T00:55:55;98627.75;;;2.98;100.00
68226;BME280;55045;49.410;11.030;2024-03-07T00:58:59;98620.16;;;2.91;100.00
68226;BME280;55045;49.410;11.030;2024-03-07T01:02:02;98622.50;;;3.10;100.00
68226;BME280;55045;49.410;11.030;2024-03-07T01:05:07;98622.56;;;3.04;100.00
68226;BME280;55045;49.410;11.030;2024-03-07T01:08:13;98619.25;;;2.93;100.00
68226;BME280;55045;49.410;11.030;2024-03-07T01:11:17;98620.94;;;2.94;100.00
68226;BME280;55045;49.410;11.030;2024-03-07T01:14:22;98596.38;;;2.76;100.00
68226;BME280;55045;49.410;11.030;2024-03-07T01:17:26;98619.22;;;2.99;100.00
68226;BME280;55045;49.410;11.030;2024-03-07T01:20:30;98613.84;;;3.21;100.00
68226;BME280;55045;49.410;11.030;2024-03-07T01:23:35;98618.38;;;2.97;100.00
68226;BME280;55045;49.410;11.030;2024-03-07T01:26:39;98613.13;;;3.06;100.00
68226;BME280;55045;49.410;11.030;2024-03-07T01:29:42;98615.03;;;2.91;100.00
68226;BME280;55045;49.410;11.030;2024-03-07T01:32:47;98611.59;;;2.90;100.00
68226;BME280;55045;49.410;11.030;2024-03-07T01:35:50;98604.06;;;2.75;100.00
68226;BME280;55045;49.410;11.030;2024-03-07T01:38:55;98598.94;;;2.75;100.00
68226;BME280;55045;49.410;11.030;2024-03-07T01:41:59;98605.94;;;3.40;100.00
68226;BME280;55045;49.410;11.030;2024-03-07T01:45:04;98598.56;;;3.11;100.00
68226;BME280;55045;49.410;11.030;2024-03-07T01:48:09;98592.88;;;2.86;100.00
68226;BME280;55045;49.410;11.030;2024-03-07T01:51:13;98592.72;;;3.00;100.00
68226;BME280;55045;49.410;11.030;2024-03-07T01:54:19;98587.28;;;3.29;100.00
68226;BME280;55045;49.410;11.030;2024-03-07T01:57:23;98586.72;;;3.03;100.00
68226;BME280;55045;49.410;11.030;2024-03-07T02:00:26;98546.84;;;2.77;100.00
68226;BME280;55045;49.410;11.030;2024-03-07T02:03:30;98592.84;;;2.89;100.00
68226;BME280;55045;49.410;11.030;2024-03-07T02:06:34;98584.22;;;2.95;100.00
68226;BME280;55045;49.410;11.030;2024-03-07T02:09:41;98575.56;;;3.05;100.00
68226;BME280;55045;49.410;11.030;2024-03-07T02:12:44;98527.22;;;2.75;100.00
68226;BME280;55045;49.410;11.030;2024-03-07T02:15:50;98578.81;;;3.23;100.00
68226;BME280;55045;49.410;11.030;2024-03-07T02:18:54;98581.56;;;3.04;100.00
68226;BME280;55045;49.410;11.030;2024-03-07T02:21:59;98573.13;;;2.93;100.00
68226;BME280;55045;49.410;11.030;2024-03-07T02:25:03;98572.28;;;2.94;100.00
68226;BME280;55045;49.410;11.030;2024-03-07T02:28:07;98568.84;;;2.97;100.00
68226;BME280;55045;49.410;11.030;2024-03-07T02:31:11;98564.72;;;2.82;100.00
68226;BME280;55045;49.410;11.030;2024-03-07T02:34:15;98559.53;;;2.89;100.00
68226;BME280;55045;49.410;11.030;2024-03-07T02:37:20;98560.41;;;2.84;100.00
68226;BME280;55045;49.410;11.030;2024-03-07T02:40:24;98558.00;;;2.72;100.00
68226;BME280;55045;49.410;11.030;2024-03-07T02:43:28;98556.22;;;2.80;100.00
68226;BME280;55045;49.410;11.030;2024-03-07T02:46:31;98552.72;;;2.87;100.00
68226;BME280;55045;49.410;11.030;2024-03-07T02:49:35;98491.78;;;2.37;100.00
68226;BME280;55045;49.410;11.030;2024-03-07T02:52:40;98552.81;;;2.78;100.00
68226;BME280;55045;49.410;11.030;2024-03-07T02:55:44;98536.75;;;2.60;100.00
68226;BME280;55045;49.410;11.030;2024-03-07T02:58:48;98541.88;;;2.62;100.00
68226;BME280;55045;49.410;11.030;2024-03-07T03:01:51;98547.84;;;2.63;100.00
68226;BME280;55045;49.410;11.030;2024-03-07T03:04:55;98543.69;;;2.49;100.00
68226;BME280;55045;49.410;11.030;2024-03-07T03:07:59;98546.94;;;2.65;100.00
68226;BME280;55045;49.410;11.030;2024-03-07T03:11:03;98544.50;;;2.54;100.00
68226;BME280;55045;49.410;11.030;2024-03-07T03:14:07;98546.81;;;2.79;100.00
68226;BME280;55045;49.410;11.030;2024-03-07T03:17:13;98549.59;;;2.57;100.00
68226;BME280;55045;49.410;11.030;2024-03-07T03:20:16;98547.75;;;2.72;100.00
68226;BME280;55045;49.410;11.030;2024-03-07T03:23:29;98554.44;;;2.86;100.00
68226;BME280;55045;49.410;11.030;2024-03-07T03:26:33;98548.69;;;2.62;100.00
68226;BME280;55045;49.410;11.030;2024-03-07T03:29:37;98556.06;;;2.92;100.00
68226;BME280;55045;49.410;11.030;2024-03-07T03:32:40;98552.09;;;2.62;100.00
68226;BME280;55045;49.410;11.030;2024-03-07T03:35:44;98547.88;;;2.58;100.00
68226;BME280;55045;49.410;11.030;2024-03-07T03:38:49;98543.56;;;2.66;100.00
68226;BME280;55045;49.410;11.030;2024-03-07T03:41:53;98545.22;;;2.70;100.00
68226;BME280;55045;49.410;11.030;2024-03-07T03:44:57;98539.16;;;2.77;100.00
68226;BME280;55045;49.410;11.030;2024-03-07T03:48:02;98543.09;;;3.07;100.00
68226;BME280;55045;49.410;11.030;2024-03-07T03:51:07;98540.78;;;2.84;100.00
68226;BME280;55045;49.410;11.030;2024-03-07T03:54:12;98545.19;;;2.72;100.00
68226;BME280;55045;49.410;11.030;2024-03-07T03:57:17;98541.94;;;2.56;100.00
68226;BME280;55045;49.410;11.030;2024-03-07T04:00:21;98547.03;;;2.57;100.00
68226;BME280;55045;49.410;11.030;2024-03-07T04:03:25;98547.63;;;2.84;100.00
68226;BME280;55045;49.410;11.030;2024-03-07T04:06:29;98552.19;;;2.56;100.00
68226;BME280;55045;49.410;11.030;2024-03-07T04:09:34;98546.19;;;2.58;100.00
68226;BME280;55045;49.410;11.030;2024-03-07T04:12:39;98547.03;;;2.59;100.00
68226;BME280;55045;49.410;11.030;2024-03-07T04:15:44;98551.59;;;2.26;100.00
68226;BME280;55045;49.410;11.030;2024-03-07T04:18:47;98549.00;;;2.29;100.00
68226;BME280;55045;49.410;11.030;2024-03-07T04:21:51;98549.09;;;2.14;100.00
68226;BME280;55045;49.410;11.030;2024-03-07T04:24:56;98552.66;;;1.96;100.00
68226;BME280;55045;49.410;11.030;2024-03-07T04:27:59;98548.41;;;1.92;100.00
68226;BME280;55045;49.410;11.030;2024-03-07T04:34:26;98559.53;;;1.84;100.00
68226;BME280;55045;49.410;11.030;2024-03-07T04:37:31;98553.72;;;1.65;100.00
68226;BME280;55045;49.410;11.030;2024-03-07T04:40:38;98552.47;;;2.21;100.00
68226;BME280;55045;49.410;11.030;2024-03-07T04:43:42;98557.78;;;1.95;100.00
68226;BME280;55045;49.410;11.030;2024-03-07T04:46:46;98552.00;;;1.62;100.00
68226;BME280;55045;49.410;11.030;2024-03-07T04:49:52;98560.63;;;1.46;100.00
68226;BME280;55045;49.410;11.030;2024-03-07T04:52:56;98558.81;;;1.68;100.00
68226;BME280;55045;49.410;11.030;2024-03-07T04:56:00;98558.94;;;1.40;100.00
68226;BME280;55045;49.410;11.030;2024-03-07T04:59:03;98556.47;;;1.18;100.00
68226;BME280;55045;49.410;11.030;2024-03-07T05:02:07;98564.19;;;1.08;100.00
68226;BME280;55045;49.410;11.030;2024-03-07T05:05:12;98565.91;;;1.03;100.00
68226;BME280;55045;49.410;11.030;2024-03-07T05:08:17;98564.19;;;1.01;100.00
68226;BME280;55045;49.410;11.030;2024-03-07T05:11:20;98554.81;;;1.07;100.00
68226;BME280;55045;49.410;11.030;2024-03-07T05:14:24;98555.66;;;1.12;100.00
68226;BME280;55045;49.410;11.030;2024-03-07T05:17:28;98564.97;;;1.21;100.00
68226;BME280;55045;49.410;11.030;2024-03-07T05:20:36;98560.63;;;1.44;100.00
68226;BME280;55045;49.410;11.030;2024-03-07T05:23:41;98561.44;;;1.50;100.00
68226;BME280;55045;49.410;11.030;2024-03-07T05:26:44;98558.88;;;1.56;100.00
68226;BME280;55045;49.410;11.030;2024-03-07T05:29:48;98557.97;;;1.66;100.00
68226;BME280;55045;49.410;11.030;2024-03-07T05:32:53;98563.03;;;1.75;100.00
68226;BME280;55045;49.410;11.030;2024-03-07T05:35:58;98555.34;;;1.72;100.00
68226;BME280;55045;49.410;11.030;2024-03-07T05:39:17;98558.84;;;1.65;100.00
68226;BME280;55045;49.410;11.030;2024-03-07T05:42:21;98554.34;;;1.97;100.00
68226;BME280;55045;49.410;11.030;2024-03-07T05:45:27;98555.31;;;1.84;100.00
68226;BME280;55045;49.410;11.030;2024-03-07T05:48:31;98555.31;;;1.81;100.00
68226;BME280;55045;49.410;11.030;2024-03-07T05:51:36;98560.47;;;1.75;100.00
68226;BME280;55045;49.410;11.030;2024-03-07T05:54:40;98544.34;;;1.62;100.00
68226;BME280;55045;49.410;11.030;2024-03-07T05:57:46;98558.84;;;1.65;100.00
68226;BME280;55045;49.410;11.030;2024-03-07T06:00:50;98530.66;;;1.69;100.00
68226;BME280;55045;49.410;11.030;2024-03-07T06:03:54;98550.06;;;2.01;100.00
68226;BME280;55045;49.410;11.030;2024-03-07T06:06:59;98551.81;;;1.94;100.00
68226;BME280;55045;49.410;11.030;2024-03-07T06:10:04;98549.19;;;2.07;100.00
68226;BME280;55045;49.410;11.030;2024-03-07T06:13:08;98546.50;;;2.20;100.00
68226;BME280;55045;49.410;11.030;2024-03-07T06:16:13;98549.03;;;2.22;100.00
68226;BME280;55045;49.410;11.030;2024-03-07T06:23:35;98549.91;;;2.21;100.00
68226;BME280;55045;49.410;11.030;2024-03-07T06:26:42;98551.34;;;2.55;100.00
68226;BME280;55045;49.410;11.030;2024-03-07T06:29:51;98561.38;;;2.74;100.00
68226;BME280;55045;49.410;11.030;2024-03-07T06:32:56;98549.69;;;2.48;100.00
68226;BME280;55045;49.410;11.030;2024-03-07T06:36:00;98553.09;;;2.49;100.00
68226;BME280;55045;49.410;11.030;2024-03-07T06:39:06;98561.63;;;2.49;100.00
68226;BME280;55045;49.410;11.030;2024-03-07T06:42:12;98556.13;;;2.86;100.00
68226;BME280;55045;49.410;11.030;2024-03-07T06:45:18;98559.63;;;2.79;100.00
68226;BME280;55045;49.410;11.030;2024-03-07T06:48:22;98560.41;;;2.84;100.00
68226;BME280;55045;49.410;11.030;2024-03-07T06:51:26;98564.59;;;2.94;100.00
68226;BME280;55045;49.410;11.030;2024-03-07T06:54:31;98565.53;;;2.87;100.00
68226;BME280;55045;49.410;11.030;2024-03-07T06:57:35;98568.16;;;2.81;100.00
68226;BME280;55045;49.410;11.030;2024-03-07T07:00:39;98561.06;;;3.07;100.00
68226;BME280;55045;49.410;11.030;2024-03-07T07:03:43;98561.06;;;3.04;100.00
68226;BME280;55045;49.410;11.030;2024-03-07T07:06:48;98566.13;;;3.10;100.00
68226;BME280;55045;49.410;11.030;2024-03-07T07:09:53;98566.91;;;3.18;100.00
68226;BME280;55045;49.410;11.030;2024-03-07T07:12:56;98572.03;;;3.18;100.00
68226;BME280;55045;49.410;11.030;2024-03-07T07:16:00;98561.13;;;3.00;100.00
68226;BME280;55045;49.410;11.030;2024-03-07T07:19:05;98562.06;;;2.91;100.00
68226;BME280;55045;49.410;11.030;2024-03-07T07:22:10;98559.38;;;3.03;100.00
68226;BME280;55045;49.410;11.030;2024-03-07T07:25:16;98559.84;;;3.34;100.00
68226;BME280;55045;49.410;11.030;2024-03-07T07:28:20;98552.38;;;3.16;100.00
68226;BME280;55045;49.410;11.030;2024-03-07T07:31:25;98546.53;;;3.05;100.00
68226;BME280;55045;49.410;11.030;2024-03-07T07:34:28;98563.47;;;3.20;100.00
68226;BME280;55045;49.410;11.030;2024-03-07T07:37:32;98555.91;;;3.09;100.00
68226;BME280;55045;49.410;11.030;2024-03-07T07:40:37;98555.78;;;3.20;100.00
68226;BME280;55045;49.410;11.030;2024-03-07T07:43:41;98561.50;;;3.41;100.00
68226;BME280;55045;49.410;11.030;2024-03-07T07:46:45;98552.13;;;3.36;100.00
68226;BME280;55045;49.410;11.030;2024-03-07T07:49:49;98544.25;;;3.53;100.00
68226;BME280;55045;49.410;11.030;2024-03-07T07:52:54;98545.72;;;3.70;100.00
68226;BME280;55045;49.410;11.030;2024-03-07T07:55:59;98546.88;;;4.07;100.00
68226;BME280;55045;49.410;11.030;2024-03-07T07:59:03;98534.94;;;4.05;100.00
68226;BME280;55045;49.410;11.030;2024-03-07T08:02:06;98534.38;;;4.41;100.00
68226;BME280;55045;49.410;11.030;2024-03-07T08:05:10;98534.34;;;4.42;100.00
68226;BME280;55045;49.410;11.030;2024-03-07T08:08:19;98534.28;;;4.45;100.00
68226;BME280;55045;49.410;11.030;2024-03-07T08:11:25;98533.19;;;4.58;100.00
68226;BME280;55045;49.410;11.030;2024-03-07T08:14:29;98529.91;;;4.52;100.00
68226;BME280;55045;49.410;11.030;2024-03-07T08:17:33;98530.97;;;4.86;100.00
68226;BME280;55045;49.410;11.030;2024-03-07T08:20:37;98530.63;;;5.05;100.00
68226;BME280;55045;49.410;11.030;2024-03-07T08:23:43;98446.56;;;4.67;100.00
68226;BME280;55045;49.410;11.030;2024-03-07T08:26:48;98530.16;;;5.28;100.00
68226;BME280;55045;49.410;11.030;2024-03-07T08:29:52;98524.72;;;5.41;100.00
68226;BME280;55045;49.410;11.030;2024-03-07T08:32:56;98517.13;;;5.37;100.00
68226;BME280;55045;49.410;11.030;2024-03-07T08:36:00;98517.03;;;5.40;100.00
68226;BME280;55045;49.410;11.030;2024-03-07T08:39:04;98512.03;;;5.74;100.00
68226;BME280;55045;49.410;11.030;2024-03-07T08:42:14;98512.50;;;5.91;100.00
68226;BME280;55045;49.410;11.030;2024-03-07T08:45:19;98519.75;;;5.74;100.00
68226;BME280;55045;49.410;11.030;2024-03-07T08:48:23;98519.03;;;5.67;100.00
68226;BME280;55045;49.410;11.030;2024-03-07T08:51:27;98511.94;;;5.77;100.00
68226;BME280;55045;49.410;11.030;2024-03-07T08:54:31;98505.13;;;5.76;100.00
68226;BME280;55045;49.410;11.030;2024-03-07T08:57:37;98509.09;;;5.89;100.00
68226;BME280;55045;49.410;11.030;2024-03-07T09:00:41;98507.00;;;6.06;100.00
68226;BME280;55045;49.410;11.030;2024-03-07T09:03:47;98503.81;;;5.97;100.00
68226;BME280;55045;49.410;11.030;2024-03-07T09:06:51;98499.38;;;6.03;100.00
68226;BME280;55045;49.410;11.030;2024-03-07T09:09:55;98498.31;;;6.11;100.00
68226;BME280;55045;49.410;11.030;2024-03-07T09:12:59;98489.13;;;6.00;100.00
68226;BME280;55045;49.410;11.030;2024-03-07T09:16:04;98499.66;;;6.27;100.00
68226;BME280;55045;49.410;11.030;2024-03-07T09:19:07;98495.22;;;6.32;100.00
68226;BME280;55045;49.410;11.030;2024-03-07T09:22:12;98494.41;;;6.30;100.00
68226;BME280;55045;49.410;11.030;2024-03-07T09:25:16;98487.81;;;6.52;100.00
68226;BME280;55045;49.410;11.030;2024-03-07T09:28:23;98495.53;;;6.52;100.00
68226;BME280;55045;49.410;11.030;2024-03-07T09:31:26;98488.84;;;6.47;100.00
68226;BME280;55045;49.410;11.030;2024-03-07T09:34:30;98486.31;;;6.45;100.00
68226;BME280;55045;49.410;11.030;2024-03-07T09:37:34;98492.16;;;6.50;100.00
68226;BME280;55045;49.410;11.030;2024-03-07T09:40:38;98490.06;;;6.66;100.00
68226;BME280;55045;49.410;11.030;2024-03-07T09:43:46;98495.34;;;6.60;100.00
68226;BME280;55045;49.410;11.030;2024-03-07T09:46:54;98492.66;;;6.64;100.00
68226;BME280;55045;49.410;11.030;2024-03-07T09:49:58;98489.22;;;6.64;100.00
68226;BME280;55045;49.410;11.030;2024-03-07T09:53:03;98487.19;;;6.77;100.00
68226;BME280;55045;49.410;11.030;2024-03-07T09:56:07;98484.94;;;6.63;100.00
68226;BME280;55045;49.410;11.030;2024-03-07T09:59:14;98487.56;;;6.61;100.00
68226;BME280;55045;49.410;11.030;2024-03-07T10:02:23;98493.69;;;6.90;100.00
68226;BME280;55045;49.410;11.030;2024-03-07T10:05:28;98490.41;;;6.85;100.00
68226;BME280;55045;49.410;11.030;2024-03-07T10:08:32;98499.78;;;6.87;100.00
68226;BME280;55045;49.410;11.030;2024-03-07T10:11:37;98499.28;;;6.75;100.00
68226;BME280;55045;49.410;11.030;2024-03-07T10:14:49;98474.44;;;6.71;100.00
68226;BME280;55045;49.410;11.030;2024-03-07T10:17:54;98488.31;;;6.67;100.00
68226;BME280;55045;49.410;11.030;2024-03-07T10:20:59;98488.38;;;6.63;100.00
68226;BME280;55045;49.410;11.030;2024-03-07T10:24:04;98482.69;;;6.51;100.00
68226;BME280;55045;49.410;11.030;2024-03-07T10:27:09;98488.47;;;6.60;100.00
68226;BME280;55045;49.410;11.030;2024-03-07T10:30:15;98472.34;;;6.85;100.00
68226;BME280;55045;49.410;11.030;2024-03-07T10:34:31;98472.47;;;6.80;100.00
68226;BME280;55045;49.410;11.030;2024-03-07T10:37:36;98481.63;;;7.21;100.00
68226;BME280;55045;49.410;11.030;2024-03-07T10:40:40;98470.75;;;7.10;100.00
68226;BME280;55045;49.410;11.030;2024-03-07T10:43:47;98477.09;;;7.30;100.00
68226;BME280;55045;49.410;11.030;2024-03-07T10:46:55;98467.81;;;7.52;100.00
68226;BME280;55045;49.410;11.030;2024-03-07T10:50:10;98450.88;;;7.43;100.00
68226;BME280;55045;49.410;11.030;2024-03-07T10:53:22;98459.78;;;7.61;100.00
68226;BME280;55045;49.410;11.030;2024-03-07T10:56:41;98452.22;;;7.55;100.00
68226;BME280;55045;49.410;11.030;2024-03-07T10:59:56;98454.56;;;7.91;100.00
68226;BME280;55045;49.410;11.030;2024-03-07T11:03:02;98456.25;;;7.92;100.00
68226;BME280;55045;49.410;11.030;2024-03-07T11:06:11;98456.13;;;7.95;100.00
68226;BME280;55045;49.410;11.030;2024-03-07T11:09:19;98442.47;;;7.65;100.00
68226;BME280;55045;49.410;11.030;2024-03-07T11:12:27;98446.47;;;7.47;100.00
68226;BME280;55045;49.410;11.030;2024-03-07T11:15:32;98447.06;;;7.55;100.00
68226;BME280;55045;49.410;11.030;2024-03-07T11:18:36;98449.56;;;7.58;100.00
68226;BME280;55045;49.410;11.030;2024-03-07T11:21:46;98447.06;;;7.55;100.00
68226;BME280;55045;49.410;11.030;2024-03-07T11:25:00;98444.41;;;7.85;100.00
68226;BME280;55045;49.410;11.030;2024-03-07T11:28:09;98447.41;;;7.99;100.00
68226;BME280;55045;49.410;11.030;2024-03-07T11:31:25;98433.31;;;7.55;100.00
68226;BME280;55045;49.410;11.030;2024-03-07T11:34:30;98425.72;;;7.50;100.00
68226;BME280;55045;49.410;11.030;2024-03-07T11:37:39;98422.47;;;7.71;100.00
68226;BME280;55045;49.410;11.030;2024-03-07T11:40:50;98420.38;;;7.83;100.00
68226;BME280;55045;49.410;11.030;2024-03-07T11:43:55;98415.97;;;7.60;100.00
68226;BME280;55045;49.410;11.030;2024-03-07T11:46:59;98409.78;;;7.64;100.00
68226;BME280;55045;49.410;11.030;2024-03-07T11:50:10;98416.13;;;7.82;100.00
68226;BME280;55045;49.410;11.030;2024-03-07T11:53:17;98399.59;;;7.33;100.00
68226;BME280;55045;49.410;11.030;2024-03-07T11:56:23;98412.94;;;7.47;100.00
68226;BME280;55045;49.410;11.030;2024-03-07T11:59:28;98407.75;;;7.19;100.00
68226;BME280;55045;49.410;11.030;2024-03-07T12:02:40;98404.47;;;7.42;100.00
68226;BME280;55045;49.410;11.030;2024-03-07T12:05:45;98406.25;;;7.40;100.00
68226;BME280;55045;49.410;11.030;2024-03-07T12:08:53;98402.78;;;7.41;100.00
68226;BME280;55045;49.410;11.030;2024-03-07T12:12:04;98397.22;;;7.27;100.00
68226;BME280;55045;49.410;11.030;2024-03-07T12:15:11;98400.53;;;7.58;100.00
68226;BME280;55045;49.410;11.030;2024-03-07T12:18:23;98394.34;;;7.36;100.00
68226;BME280;55045;49.410;11.030;2024-03-07T12:21:30;98389.59;;;7.50;100.00
68226;BME280;55045;49.410;11.030;2024-03-07T12:24:37;98394.69;;;7.51;100.00
68226;BME280;55045;49.410;11.030;2024-03-07T12:27:40;98385.06;;;7.30;100.00
68226;BME280;55045;49.410;11.030;2024-03-07T12:30:50;98382.31;;;7.35;100.00
68226;BME280;55045;49.410;11.030;2024-03-07T12:33:55;98358.31;;;7.33;100.00
68226;BME280;55045;49.410;11.030;2024-03-07T12:37:24;98386.06;;;7.25;100.00
68226;BME280;55045;49.410;11.030;2024-03-07T12:40:31;98380.84;;;7.28;100.00
68226;BME280;55045;49.410;11.030;2024-03-07T12:43:36;98370.25;;;7.35;100.00
68226;BME280;55045;49.410;11.030;2024-03-07T12:46:40;98372.47;;;7.47;100.00
68226;BME280;55045;49.410;11.030;2024-03-07T12:49:50;98376.38;;;7.33;100.00
68226;BME280;55045;49.410;11.030;2024-03-07T12:52:58;98374.50;;;7.38;100.00
68226;BME280;55045;49.410;11.030;2024-03-07T12:56:13;98374.34;;;7.42;100.00
68226;BME280;55045;49.410;11.030;2024-03-07T12:59:20;98353.44;;;7.23;100.00
68226;BME280;55045;49.410;11.030;2024-03-07T13:02:27;98368.63;;;7.33;100.00
68226;BME280;55045;49.410;11.030;2024-03-07T13:05:32;98361.66;;;7.35;100.00
68226;BME280;55045;49.410;11.030;2024-03-07T13:08:36;98362.50;;;7.37;100.00
68226;BME280;55045;49.410;11.030;2024-03-07T13:11:42;98360.81;;;7.36;100.00
68226;BME280;55045;49.410;11.030;2024-03-07T13:14:49;98364.78;;;7.18;100.00
68226;BME280;55045;49.410;11.030;2024-03-07T13:17:53;98355.94;;;7.25;100.00
68226;BME280;55045;49.410;11.030;2024-03-07T13:20:57;98372.84;;;7.35;100.00
68226;BME280;55045;49.410;11.030;2024-03-07T13:24:01;98338.06;;;7.20;100.00
68226;BME280;55045;49.410;11.030;2024-03-07T13:27:06;98355.28;;;7.20;100.00
68226;BME280;55045;49.410;11.030;2024-03-07T13:30:15;98345.19;;;7.12;100.00
68226;BME280;55045;49.410;11.030;2024-03-07T13:33:35;98358.03;;;7.14;100.00
68226;BME280;55045;49.410;11.030;2024-03-07T13:36:40;98330.25;;;7.22;100.00
68226;BME280;55045;49.410;11.030;2024-03-07T13:39:44;98355.03;;;7.28;100.00
68226;BME280;55045;49.410;11.030;2024-03-07T13:42:52;98353.31;;;7.28;100.00
68226;BME280;55045;49.410;11.030;2024-03-07T13:45:56;98349.09;;;7.26;100.00
68226;BME280;55045;49.410;11.030;2024-03-07T13:49:00;98350.16;;;7.18;100.00
68226;BME280;55045;49.410;11.030;2024-03-07T13:52:10;98346.13;;;7.10;100.00
68226;BME280;55045;49.410;11.030;2024-03-07T13:55:21;98324.94;;;7.00;100.00
68226;BME280;55045;49.410;11.030;2024-03-07T13:58:50;98350.25;;;7.15;100.00
68226;BME280;55045;49.410;11.030;2024-03-07T14:02:56;98350.94;;;7.20;100.00
68226;BME280;55045;49.410;11.030;2024-03-07T14:07:35;98348.47;;;7.17;100.00
68226;BME280;55045;49.410;11.030;2024-03-07T14:21:23;98345.22;;;7.11;100.00
68226;BME280;55045;49.410;11.030;2024-03-07T14:25:34;98344.63;;;7.03;100.00
68226;BME280;55045;49.410;11.030;2024-03-07T14:29:17;98235.00;;;6.61;100.00
68226;BME280;55045;49.410;11.030;2024-03-07T14:33:07;98328.50;;;6.96;100.00
68226;BME280;55045;49.410;11.030;2024-03-07T14:36:57;98343.31;;;7.17;100.00
68226;BME280;55045;49.410;11.030;2024-03-07T14:40:25;98343.50;;;7.11;100.00
68226;BME280;55045;49.410;11.030;2024-03-07T14:47:55;98335.53;;;7.19;100.00
68226;BME280;55045;49.410;11.030;2024-03-07T14:51:45;98335.97;;;7.05;100.00
68226;BME280;55045;49.410;11.030;2024-03-07T14:55:37;98343.16;;;7.22;100.00
68226;BME280;55045;49.410;11.030;2024-03-07T14:59:46;98327.63;;;7.23;100.00
68226;BME280;55045;49.410;11.030;2024-03-07T15:03:49;98228.72;;;6.42;100.00
68226;BME280;55045;49.410;11.030;2024-03-07T15:11:35;98327.28;;;7.08;100.00
68226;BME280;55045;49.410;11.030;2024-03-07T15:20:00;98329.56;;;6.89;100.00
68226;BME280;55045;49.410;11.030;2024-03-07T15:24:36;98330.72;;;6.79;100.00
68226;BME280;55045;49.410;11.030;2024-03-07T15:28:41;98333.22;;;6.82;100.00
68226;BME280;55045;49.410;11.030;2024-03-07T15:32:47;98331.41;;;6.85;100.00
68226;BME280;55045;49.410;11.030;2024-03-07T15:36:46;98331.66;;;6.76;100.00
68226;BME280;55045;49.410;11.030;2024-03-07T15:40:07;98310.84;;;6.54;100.00
68226;BME280;55045;49.410;11.030;2024-03-07T15:43:38;98302.25;;;6.54;100.00
68226;BME280;55045;49.410;11.030;2024-03-07T15:47:19;98328.63;;;6.62;100.00
68226;BME280;55045;49.410;11.030;2024-03-07T15:51:12;98306.44;;;6.58;100.00
68226;BME280;55045;49.410;11.030;2024-03-07T15:54:31;98324.56;;;6.55;100.00
68226;BME280;55045;49.410;11.030;2024-03-07T15:58:09;98299.41;;;6.63;100.00
68226;BME280;55045;49.410;11.030;2024-03-07T16:01:50;98320.94;;;6.60;100.00
68226;BME280;55045;49.410;11.030;2024-03-07T16:04:54;98323.22;;;6.71;100.00
68226;BME280;55045;49.410;11.030;2024-03-07T16:08:00;98321.69;;;6.66;100.00
68226;BME280;55045;49.410;11.030;2024-03-07T16:11:04;98319.00;;;6.69;100.00
68226;BME280;55045;49.410;11.030;2024-03-07T16:14:10;98323.41;;;6.65;100.00
68226;BME280;55045;49.410;11.030;2024-03-07T16:17:15;98318.31;;;6.62;100.00
68226;BME280;55045;49.410;11.030;2024-03-07T16:20:21;98335.63;;;6.58;100.00
68226;BME280;55045;49.410;11.030;2024-03-07T16:23:25;98317.47;;;6.61;100.00
68226;BME280;55045;49.410;11.030;2024-03-07T16:26:33;98321.16;;;6.54;100.00
68226;BME280;55045;49.410;11.030;2024-03-07T16:29:37;98323.53;;;6.60;100.00
68226;BME280;55045;49.410;11.030;2024-03-07T16:34:26;98322.28;;;6.44;100.00
68226;BME280;55045;49.410;11.030;2024-03-07T16:37:30;98331.78;;;6.42;100.00
68226;BME280;55045;49.410;11.030;2024-03-07T16:40:34;98314.28;;;6.53;100.00
68226;BME280;55045;49.410;11.030;2024-03-07T16:43:40;98322.91;;;6.52;100.00
68226;BME280;55045;49.410;11.030;2024-03-07T16:46:44;98327.16;;;6.53;100.00
68226;BME280;55045;49.410;11.030;2024-03-07T16:49:49;98318.28;;;6.34;100.00
68226;BME280;55045;49.410;11.030;2024-03-07T16:52:56;98321.88;;;6.28;100.00
68226;BME280;55045;49.410;11.030;2024-03-07T16:56:00;98329.69;;;6.25;100.00
68226;BME280;55045;49.410;11.030;2024-03-07T16:59:06;98332.56;;;6.15;100.00
68226;BME280;55045;49.410;11.030;2024-03-07T17:02:11;98334.94;;;6.21;100.00